createdAt,value
2022-09-03T00:02:27.401Z,8
2022-09-03T00:07:27.972Z,6
2022-09-03T00:12:27.428Z,5
2022-09-03T00:17:27.973Z,4
2022-09-03T00:22:27.439Z,5
2022-09-03T00:27:27.431Z,4
2022-09-03T00:32:27.533Z,5
2022-09-03T00:37:27.433Z,5
2022-09-03T00:42:29.274Z,5
2022-09-03T00:47:26.916Z,7
2022-09-03T00:52:31.781Z,6
2022-09-03T00:57:27.655Z,6
2022-09-03T01:02:28.356Z,7
2022-09-03T01:07:27.574Z,5
2022-09-03T01:12:27.576Z,4
2022-09-03T01:17:27.656Z,4
2022-09-03T01:22:27.492Z,4
2022-09-03T01:27:26.988Z,5
2022-09-03T01:32:27.642Z,4
2022-09-03T01:37:27.600Z,4
2022-09-03T01:42:28.260Z,4
2022-09-03T01:47:27.560Z,5
2022-09-03T01:52:28.191Z,4
2022-09-03T01:57:35.076Z,4
2022-09-03T02:02:27.752Z,4
2022-09-03T02:07:27.067Z,4
2022-09-03T02:12:28.172Z,5
2022-09-03T02:17:27.714Z,7
2022-09-03T02:22:27.689Z,5
2022-09-03T02:27:27.692Z,4
2022-09-03T02:32:33.852Z,4
2022-09-03T02:37:27.138Z,4
2022-09-03T02:42:27.150Z,5
2022-09-03T02:47:27.632Z,5
2022-09-03T02:52:28.351Z,7
2022-09-03T02:57:28.244Z,8
2022-09-03T03:02:27.713Z,7
2022-09-03T03:07:27.673Z,7
2022-09-03T03:12:27.782Z,8
2022-09-03T03:17:28.309Z,8
2022-09-03T03:22:27.861Z,9
2022-09-03T03:27:27.874Z,7
2022-09-03T03:32:27.793Z,9
2022-09-03T03:37:27.238Z,8
2022-09-03T03:42:27.972Z,7
2022-09-03T03:47:28.489Z,6
2022-09-03T03:52:28.462Z,8
2022-09-03T03:57:27.278Z,8
2022-09-03T04:02:28.517Z,9
2022-09-03T04:07:27.966Z,9
2022-09-03T04:12:29.086Z,8
2022-09-03T04:17:27.924Z,9
2022-09-03T04:22:28.535Z,9
2022-09-03T04:27:27.822Z,10
2022-09-03T04:32:28.621Z,9
2022-09-03T04:37:27.873Z,10
2022-09-03T04:42:27.346Z,10
2022-09-03T04:47:29.794Z,10
2022-09-03T04:52:28.091Z,10
2022-09-03T04:57:27.988Z,9
2022-09-03T05:02:27.954Z,11
2022-09-03T05:07:27.908Z,10
2022-09-03T05:12:28.019Z,10
2022-09-03T05:17:28.600Z,9
2022-09-03T05:22:28.566Z,9
2022-09-03T05:27:28.574Z,9
2022-09-03T05:32:28.050Z,9
2022-09-03T05:37:27.467Z,10
2022-09-03T05:42:28.250Z,11
2022-09-03T05:47:28.701Z,11
2022-09-03T05:52:28.140Z,12
2022-09-03T05:57:28.073Z,20
2022-09-03T06:02:28.232Z,11
2022-09-03T06:07:28.614Z,11
2022-09-03T06:12:28.681Z,10
2022-09-03T06:17:28.021Z,12
2022-09-03T06:22:29.893Z,10
2022-09-03T06:27:27.580Z,10
2022-09-03T06:32:28.865Z,10
2022-09-03T06:37:27.559Z,10
2022-09-03T06:42:27.628Z,10
2022-09-03T06:47:28.747Z,10
2022-09-03T06:52:28.809Z,9
2022-09-03T06:57:28.291Z,7
2022-09-03T07:02:28.325Z,7
2022-09-03T07:07:28.921Z,8
2022-09-03T07:12:30.077Z,6
2022-09-03T07:17:27.634Z,7
2022-09-03T07:22:31.269Z,7
2022-09-03T07:27:28.187Z,7
2022-09-03T07:32:28.311Z,8
2022-09-03T07:37:30.146Z,7
2022-09-03T07:42:27.722Z,7
2022-09-03T07:47:28.997Z,8
2022-09-03T07:52:28.299Z,8
2022-09-03T07:57:28.403Z,8
2022-09-03T08:02:28.817Z,8
2022-09-03T08:07:28.962Z,8
2022-09-03T08:12:28.460Z,10
2022-09-03T08:17:28.285Z,12
2022-09-03T08:22:27.804Z,8
2022-09-03T08:27:28.961Z,5
2022-09-03T08:32:28.460Z,6
2022-09-03T08:37:27.853Z,5
2022-09-03T08:42:27.866Z,4
2022-09-03T08:47:28.434Z,4
2022-09-03T08:52:29.708Z,4
2022-09-03T08:57:27.818Z,4
2022-09-03T09:02:27.922Z,3
2022-09-03T09:07:28.938Z,5
2022-09-03T09:12:28.966Z,5
2022-09-03T09:17:28.972Z,6
2022-09-03T09:22:28.501Z,5
2022-09-03T09:27:30.318Z,4
2022-09-03T09:32:28.444Z,4
2022-09-03T09:37:27.888Z,4
2022-09-03T09:42:27.925Z,5
2022-09-03T09:47:29.218Z,5
2022-09-03T09:52:28.458Z,4
2022-09-03T09:57:28.573Z,4
2022-09-03T10:02:28.580Z,5
2022-09-03T10:07:29.311Z,4
2022-09-03T10:12:28.588Z,5
2022-09-03T10:17:37.243Z,5
2022-09-03T10:22:32.331Z,4
2022-09-03T10:27:28.524Z,4
2022-09-03T10:32:29.087Z,4
2022-09-03T10:37:28.126Z,4
2022-09-03T10:42:28.677Z,4
2022-09-03T10:47:28.809Z,4
2022-09-03T10:52:33.373Z,4
2022-09-03T10:57:28.573Z,4
2022-09-03T11:02:28.743Z,4
2022-09-03T11:07:29.229Z,4
2022-09-03T11:12:28.624Z,6
2022-09-03T11:17:29.959Z,4
2022-09-03T11:22:28.658Z,4
2022-09-03T11:27:28.646Z,4
2022-09-03T11:32:28.768Z,4
2022-09-03T11:37:28.651Z,4
2022-09-03T11:42:28.665Z,4
2022-09-03T11:47:28.768Z,4
2022-09-03T11:52:29.360Z,3
2022-09-03T11:57:28.223Z,3
2022-09-03T12:02:28.900Z,3
2022-09-03T12:07:29.524Z,3
2022-09-03T12:12:28.833Z,3
2022-09-03T12:17:29.424Z,3
2022-09-03T12:22:28.955Z,3
2022-09-03T12:27:28.278Z,3
2022-09-03T12:32:28.295Z,3
2022-09-03T12:42:28.311Z,3
2022-09-03T12:47:37.177Z,3
2022-09-03T12:52:28.916Z,3
2022-09-03T12:57:29.382Z,3
2022-09-03T13:02:29.051Z,3
2022-09-03T13:07:29.507Z,3
2022-09-03T13:12:28.841Z,3
2022-09-03T13:17:28.975Z,3
2022-09-03T13:22:28.844Z,3
2022-09-03T13:27:28.484Z,4
2022-09-03T13:32:29.011Z,4
2022-09-03T13:37:28.401Z,3
2022-09-03T13:42:28.639Z,3
2022-09-03T13:47:28.886Z,3
2022-09-03T13:52:29.538Z,3
2022-09-03T13:57:28.918Z,3
2022-09-03T14:02:29.699Z,4
2022-09-03T14:07:28.420Z,4
2022-09-03T14:12:28.435Z,4
2022-09-03T14:17:29.116Z,3
2022-09-03T14:22:29.069Z,3
2022-09-03T14:27:29.068Z,4
2022-09-03T14:32:29.742Z,3
2022-09-03T14:37:28.493Z,4
2022-09-03T14:42:29.111Z,3
2022-09-03T14:47:28.479Z,4
2022-09-03T14:52:29.737Z,3
2022-09-03T14:57:29.663Z,3
2022-09-03T15:02:29.184Z,3
2022-09-03T15:07:29.039Z,3
2022-09-03T15:12:29.131Z,3
2022-09-03T15:17:29.085Z,3
2022-09-03T15:22:29.667Z,3
2022-09-03T15:27:29.809Z,3
2022-09-03T15:32:29.191Z,3
2022-09-03T15:37:29.090Z,3
2022-09-03T15:42:29.121Z,3
2022-09-03T15:47:29.165Z,4
2022-09-03T15:52:29.753Z,4
2022-09-03T15:57:29.135Z,3
2022-09-03T16:02:30.077Z,3
2022-09-03T16:07:29.269Z,3
2022-09-03T16:12:29.885Z,4
2022-09-03T16:17:28.677Z,4
2022-09-03T16:22:29.890Z,3
2022-09-03T16:27:29.908Z,3
2022-09-03T16:32:30.097Z,3
2022-09-03T16:37:28.734Z,4
2022-09-03T16:42:29.379Z,3
2022-09-03T16:47:29.840Z,4
2022-09-03T16:52:38.406Z,5
2022-09-03T16:57:29.256Z,3
2022-09-03T17:02:41.026Z,4
2022-09-03T17:07:30.083Z,4
2022-09-03T17:12:29.976Z,4
2022-09-03T17:17:29.379Z,4
2022-09-03T17:22:29.936Z,4
2022-09-03T17:27:29.345Z,3
2022-09-03T17:32:29.934Z,5
2022-09-03T17:37:28.858Z,5
2022-09-03T17:42:29.972Z,5
2022-09-03T17:47:28.858Z,5
2022-09-03T17:52:29.967Z,6
2022-09-03T17:57:29.402Z,5
2022-09-03T18:02:29.978Z,6
2022-09-03T18:07:30.091Z,6
2022-09-03T18:12:29.991Z,5
2022-09-03T18:17:29.447Z,4
2022-09-03T18:22:30.048Z,5
2022-09-03T18:27:29.452Z,5
2022-09-03T18:32:29.510Z,5
2022-09-03T18:37:29.050Z,6
2022-09-03T18:42:29.545Z,5
2022-09-03T18:52:29.518Z,5
2022-09-03T18:57:29.656Z,5
2022-09-03T19:02:29.645Z,6
2022-09-03T19:07:29.540Z,6
2022-09-03T19:12:29.540Z,7
2022-09-03T19:17:29.067Z,5
2022-09-03T19:22:29.040Z,5
2022-09-03T19:27:52.071Z,5
2022-09-03T19:32:29.598Z,6
2022-09-03T19:37:30.762Z,6
2022-09-03T19:42:29.046Z,6
2022-09-03T19:47:31.576Z,6
2022-09-03T19:52:29.073Z,5
2022-09-03T19:57:29.143Z,5
2022-09-03T20:02:30.444Z,5
2022-09-03T20:07:29.751Z,5
2022-09-03T20:12:30.311Z,6
2022-09-03T20:17:30.374Z,5
2022-09-03T20:22:30.358Z,6
2022-09-03T20:27:30.384Z,6
2022-09-03T20:32:29.811Z,5
2022-09-03T20:37:30.454Z,7
2022-09-03T20:42:29.760Z,6
2022-09-03T20:47:29.342Z,5
2022-09-03T20:53:44.476Z,6
2022-09-03T20:57:31.613Z,7
2022-09-03T21:02:36.525Z,6
2022-09-03T21:08:03.036Z,5
2022-09-03T21:13:59.867Z,6
2022-09-03T21:18:11.485Z,6
2022-09-03T21:22:30.568Z,6
2022-09-03T21:27:30.476Z,6
2022-09-03T21:32:29.820Z,5
2022-09-03T21:37:29.929Z,5
2022-09-03T21:42:29.291Z,6
2022-09-03T21:47:29.988Z,6
2022-09-03T21:52:29.935Z,6
2022-09-03T21:57:30.564Z,5
2022-09-03T22:02:31.841Z,6
2022-09-03T22:07:29.359Z,7
2022-09-03T22:12:29.435Z,7
2022-09-03T22:17:30.616Z,7
2022-09-03T22:22:29.866Z,7
2022-09-03T22:27:30.476Z,8
2022-09-03T22:32:30.539Z,7
2022-09-03T22:37:29.410Z,9
2022-09-03T22:42:30.527Z,8
2022-09-03T22:47:29.418Z,7
2022-09-03T22:52:29.973Z,6
2022-09-03T22:57:29.999Z,6
2022-09-03T23:02:30.605Z,7
2022-09-03T23:07:30.027Z,6
2022-09-03T23:12:29.983Z,6
2022-09-03T23:22:30.298Z,7
2022-09-03T23:27:31.865Z,5
2022-09-03T23:32:33.165Z,5
2022-09-03T23:37:34.399Z,5
2022-09-03T23:42:29.533Z,6
2022-09-03T23:47:30.167Z,6
2022-09-03T23:52:29.597Z,5
2022-09-03T23:57:30.806Z,5
